Chicago Rockford International Airport
KRFD : now visible

Airfield :











YOU CAN JOIN US ON...

 
LOGIN :

Register | Disclaimer

   EN    FR    IT 

 









Legend :    VFR   Marginal VFR   IFR   Intensive IFR   Very Intensive IFR
Visi :
Ceiling :
>= 8 km
>= 3000ft
5 to 8 km
1000 to 3000 ft
1500m to 5 km
500 to 1000 ft
800 to 1500m
200 to 500 ft
< 800m
< 200 ft
Symbols :   Thunderstorms  Fog  Heavy snow  Heavy precipitations  Wind > 20 kt






- Airport Elevation : 742 ft
- IATA code : RFD


KRFD - Chicago Rockford International

CURRENT METAR :
  • 181854Z 11008KT 7SM -RA FEW055 SCT070 OVC090 19/16 A3018 RMK AO2 SLP219 P0003 T01940161

EXPIRED METARs :
  • 181754Z 11006KT 7SM -RA FEW020 OVC070 18/16 A3020 RMK AO2 SLP226 P0006 60008 T01830156 10217 20156 50001
  • 181654Z 14010KT 7SM -RA FEW020 SCT065 OVC090 18/15 A3021 RMK AO2 RAB11 SLP230 P0002 T01830150

TAF KRFD
Valid from the 18 at 18:00 until the 19 at 18:00 UTC


181739Z 1818/1918 14013G22KT P6SM -SHRA SCT020 OVC050
TEMPO 1818/1822 5SM -SHRA BKN020
FM190400 16012G18KT P6SM VCSH BKN010 OVC020
TEMPO 1912/1916 5SM -SHRA BKN008
FM191600 18012G20KT P6SM BKN040
KZAU FIR / North America



MET'MAP, your aeronautical weather chart ! - Copyright ORBIFLY December 2007 - Disclaimer

ORBIFLY MET'MAP TEAM :

Programming & Development : Alexandra Zaïnal
Concept & original design : Baudouin d'Aumeries
Assistance for programming : Marc-Olivier Méhu
Technical & hardware support : Manuel Goepfert

Contact : metmap@orbifly.com




SOURCES & CREDITS :

   NOAA       Earth
Advisory